createdAt,value
2019-03-26T00:01:47.135Z,102425.68
2019-03-26T00:04:17.974Z,102415.63
2019-03-26T00:06:49.395Z,102414.41
2019-03-26T00:09:19.952Z,102411.81
2019-03-26T00:11:49.395Z,102413.22
2019-03-26T00:14:20.030Z,102419.45
2019-03-26T00:16:50.902Z,102423.90
2019-03-26T00:19:29.613Z,102426.13
2019-03-26T00:21:59.088Z,102428.87
2019-03-26T00:24:28.968Z,102424.94
2019-03-26T00:26:58.861Z,102422.36
2019-03-26T00:29:28.691Z,102428.56
2019-03-26T00:31:58.296Z,102429.91
2019-03-26T00:34:27.878Z,102426.45
2019-03-26T00:36:58.031Z,102429.08
2019-03-26T00:39:28.888Z,102434.41
2019-03-26T00:42:00.178Z,102435.77
2019-03-26T00:44:30.551Z,102430.48
2019-03-26T00:47:00.314Z,102426.13
2019-03-26T00:49:32.936Z,102423.95
2019-03-26T00:52:02.738Z,102416.10
2019-03-26T00:54:32.206Z,102423.58
2019-03-26T00:57:02.658Z,102423.18
2019-03-26T00:59:32.809Z,102425.42
2019-03-26T01:02:02.564Z,102427.59
2019-03-26T01:04:33.568Z,102423.66
2019-03-26T01:07:03.749Z,102424.58
2019-03-26T01:09:33.302Z,102432.96
2019-03-26T01:12:03.195Z,102425.05
2019-03-26T01:14:33.351Z,102424.19
2019-03-26T01:17:04.177Z,102429.45
2019-03-26T01:19:34.840Z,102422.43
2019-03-26T01:22:04.409Z,102423.75
2019-03-26T01:24:34.816Z,102422.43
2019-03-26T01:27:04.282Z,102430.80
2019-03-26T01:29:34.354Z,102427.73
2019-03-26T01:32:04.105Z,102428.55
2019-03-26T01:34:45.496Z,102426.68
2019-03-26T01:37:06.694Z,102422.14
2019-03-26T01:39:36.761Z,102419.42
2019-03-26T01:42:06.800Z,102412.70
2019-03-26T01:44:36.508Z,102416.11
2019-03-26T01:47:05.957Z,102412.95
2019-03-26T01:49:36.343Z,102413.32
2019-03-26T01:52:09.931Z,102411.88
2019-03-26T01:54:39.563Z,102407.39
2019-03-26T01:57:12.031Z,102399.39
2019-03-26T01:59:41.938Z,102408.94
2019-03-26T02:02:12.173Z,102411.97
2019-03-26T02:04:43.408Z,102418.49
2019-03-26T02:07:13.454Z,102409.59
2019-03-26T02:09:43.245Z,102416.61
2019-03-26T02:12:14.499Z,102414.86
2019-03-26T02:14:44.684Z,102413.97
2019-03-26T02:17:14.229Z,102409.59
2019-03-26T02:19:44.467Z,102403.08
2019-03-26T02:22:14.234Z,102407.52
2019-03-26T02:24:44.082Z,102405.81
2019-03-26T02:27:17.132Z,102403.67
2019-03-26T02:29:49.284Z,102401.03
2019-03-26T02:32:19.882Z,102410.30
2019-03-26T02:34:49.816Z,102405.09
2019-03-26T02:37:19.599Z,102405.61
2019-03-26T02:39:49.490Z,102404.79
2019-03-26T02:42:19.746Z,102406.17
2019-03-26T02:44:49.484Z,102405.78
2019-03-26T02:47:19.628Z,102408.05
2019-03-26T02:49:49.232Z,102405.41
2019-03-26T02:52:19.502Z,102403.20
2019-03-26T02:54:49.104Z,102407.65
2019-03-26T02:57:20.667Z,102404.16
2019-03-26T02:59:50.766Z,102400.23
2019-03-26T03:02:20.635Z,102397.13
2019-03-26T03:04:51.317Z,102403.30
2019-03-26T03:07:21.042Z,102402.87
2019-03-26T03:09:50.944Z,102400.23
2019-03-26T03:12:21.300Z,102397.62
2019-03-26T03:14:52.692Z,102397.16
2019-03-26T03:17:22.603Z,102387.45
2019-03-26T03:19:53.196Z,102386.03
2019-03-26T03:22:23.914Z,102392.10
2019-03-26T03:24:53.821Z,102386.31
2019-03-26T03:27:26.449Z,102383.20
2019-03-26T03:29:57.794Z,102386.31
2019-03-26T03:32:32.180Z,102384.56
2019-03-26T03:35:02.746Z,102371.44
2019-03-26T03:37:32.672Z,102371.47
2019-03-26T03:40:02.732Z,102370.61
2019-03-26T03:42:32.299Z,102381.59
2019-03-26T03:45:01.980Z,102377.23
2019-03-26T03:47:34.371Z,102368.04
2019-03-26T03:50:04.478Z,102368.92
2019-03-26T03:52:46.161Z,102363.26
2019-03-26T03:55:16.763Z,102374.30
2019-03-26T03:57:52.566Z,102369.08
2019-03-26T04:00:36.396Z,102361.66
2019-03-26T04:03:09.153Z,102364.81
2019-03-26T04:05:41.190Z,102354.74
2019-03-26T04:08:11.050Z,102350.41
2019-03-26T04:10:40.977Z,102352.22
2019-03-26T04:13:11.464Z,102343.44
2019-03-26T04:15:42.460Z,102347.45
2019-03-26T04:18:15.461Z,102344.44
2019-03-26T04:20:45.428Z,102346.67
2019-03-26T04:23:17.949Z,102353.75
2019-03-26T04:25:50.562Z,102357.30
2019-03-26T04:28:20.232Z,102359.99
2019-03-26T04:30:50.399Z,102362.23
2019-03-26T04:33:21.165Z,102361.81
2019-03-26T04:35:53.437Z,102348.27
2019-03-26T04:38:24.235Z,102354.51
2019-03-26T04:40:54.141Z,102352.37
2019-03-26T04:43:25.119Z,102345.33
2019-03-26T04:46:07.352Z,102344.04
2019-03-26T04:52:21.539Z,102352.92
2019-03-26T04:54:51.249Z,102345.47
2019-03-26T04:57:21.105Z,102347.30
2019-03-26T04:59:51.713Z,102349.94
2019-03-26T05:02:22.250Z,102345.03
2019-03-26T05:04:51.795Z,102347.23
2019-03-26T05:07:24.922Z,102338.02
2019-03-26T05:09:55.582Z,102354.71
2019-03-26T05:12:25.870Z,102356.53
2019-03-26T05:14:55.246Z,102367.19
2019-03-26T05:17:24.822Z,102360.62
2019-03-26T05:19:54.763Z,102348.31
2019-03-26T05:22:24.704Z,102342.52
2019-03-26T05:24:54.114Z,102341.22
2019-03-26T05:33:41.233Z,102339.84
2019-03-26T05:34:28.016Z,102335.43
2019-03-26T05:36:58.330Z,102338.51
2019-03-26T05:39:27.921Z,102347.25
2019-03-26T05:41:57.593Z,102352.51
2019-03-26T05:44:27.773Z,102338.39
2019-03-26T05:46:58.175Z,102356.02
2019-03-26T05:49:28.509Z,102344.54
2019-03-26T05:51:58.019Z,102350.25
2019-03-26T05:54:30.092Z,102341.03
2019-03-26T05:57:00.746Z,102340.64
2019-03-26T05:59:30.510Z,102338.51
2019-03-26T06:06:10.240Z,102341.28
2019-03-26T06:09:20.823Z,102345.31
2019-03-26T06:11:51.558Z,102339.68
2019-03-26T06:14:21.256Z,102339.81
2019-03-26T06:16:57.351Z,102336.23
2019-03-26T06:19:27.678Z,102337.50
2019-03-26T06:21:56.997Z,102340.70
2019-03-26T06:24:27.447Z,102348.80
2019-03-26T06:26:58.056Z,102349.91
2019-03-26T06:29:28.867Z,102341.64
2019-03-26T06:31:58.901Z,102346.45
2019-03-26T06:34:28.782Z,102341.09
2019-03-26T06:36:59.152Z,102341.50
2019-03-26T06:39:31.813Z,102331.33
2019-03-26T06:42:01.321Z,102331.33
2019-03-26T06:44:30.673Z,102334.90
2019-03-26T06:47:00.175Z,102329.70
2019-03-26T06:49:29.582Z,102330.64
2019-03-26T06:51:59.741Z,102333.30
2019-03-26T06:54:29.324Z,102331.55
2019-03-26T06:56:59.262Z,102325.44
2019-03-26T06:59:29.247Z,102325.91
2019-03-26T07:01:58.785Z,102324.16
2019-03-26T07:04:29.534Z,102329.48
2019-03-26T07:06:59.347Z,102325.09
2019-03-26T07:09:29.683Z,102330.82
2019-03-26T07:11:59.157Z,102333.00
2019-03-26T07:14:28.709Z,102338.75
2019-03-26T07:16:59.163Z,102344.48
2019-03-26T07:19:29.080Z,102344.97
2019-03-26T07:21:59.574Z,102343.22
2019-03-26T07:24:30.070Z,102343.27
2019-03-26T07:26:59.847Z,102331.50
2019-03-26T07:29:29.365Z,102337.31
2019-03-26T07:31:59.904Z,102341.30
2019-03-26T07:34:29.979Z,102335.06
2019-03-26T07:36:59.814Z,102332.42
2019-03-26T07:39:30.125Z,102333.28
2019-03-26T07:42:03.781Z,102336.34
2019-03-26T07:44:36.225Z,102334.98
2019-03-26T07:47:06.093Z,102336.77
2019-03-26T07:49:35.826Z,102340.75
2019-03-26T07:52:06.282Z,102335.45
2019-03-26T07:54:36.438Z,102345.19
2019-03-26T07:57:05.932Z,102339.00
2019-03-26T07:59:35.966Z,102339.90
2019-03-26T08:02:06.498Z,102340.34
2019-03-26T08:04:36.704Z,102331.08
2019-03-26T08:07:06.631Z,102334.61
2019-03-26T08:09:36.306Z,102333.28
2019-03-26T08:12:06.317Z,102329.73
2019-03-26T08:14:36.571Z,102322.24
2019-03-26T08:17:06.208Z,102320.48
2019-03-26T08:19:36.762Z,102317.41
2019-03-26T08:22:06.485Z,102316.08
2019-03-26T08:24:36.085Z,102300.19
2019-03-26T08:27:08.520Z,102301.95
2019-03-26T08:29:38.163Z,102291.77
2019-03-26T08:32:08.714Z,102293.00
2019-03-26T08:34:38.191Z,102278.38
2019-03-26T08:37:08.593Z,102282.27
2019-03-26T08:39:39.101Z,102276.10
2019-03-26T08:42:09.252Z,102288.98
2019-03-26T08:44:41.937Z,102290.77
2019-03-26T08:47:11.866Z,102299.24
2019-03-26T08:49:42.288Z,102304.14
2019-03-26T08:52:12.661Z,102305.47
2019-03-26T08:54:42.771Z,102313.01
2019-03-26T08:57:13.405Z,102327.56
2019-03-26T08:59:43.379Z,102331.53
2019-03-26T09:02:14.286Z,102311.21
2019-03-26T09:04:44.613Z,102313.00
2019-03-26T09:07:14.552Z,102317.84
2019-03-26T09:09:46.331Z,102322.70
2019-03-26T09:12:16.341Z,102333.33
2019-03-26T09:14:48.292Z,102339.47
2019-03-26T09:17:19.971Z,102332.58
2019-03-26T09:19:50.266Z,102329.60
2019-03-26T09:22:21.221Z,102325.11
2019-03-26T09:24:52.021Z,102315.66
2019-03-26T09:27:22.105Z,102312.11
2019-03-26T09:29:52.503Z,102316.55
2019-03-26T09:32:22.861Z,102327.12
2019-03-26T09:34:52.776Z,102319.45
2019-03-26T09:37:22.741Z,102326.79
2019-03-26T09:39:53.165Z,102328.25
2019-03-26T09:42:22.753Z,102338.03
2019-03-26T09:44:52.629Z,102338.05
2019-03-26T09:47:22.777Z,102338.97
2019-03-26T09:49:52.280Z,102339.88
2019-03-26T09:52:22.173Z,102333.69
2019-03-26T09:54:51.869Z,102320.14
2019-03-26T09:57:21.571Z,102315.41
2019-03-26T09:59:51.704Z,102317.67
2019-03-26T10:02:21.791Z,102314.14
2019-03-26T10:05:00.777Z,102333.68
2019-03-26T10:07:30.340Z,102324.09
2019-03-26T10:10:00.560Z,102333.36
2019-03-26T10:12:30.446Z,102324.39
2019-03-26T10:15:00.353Z,102336.33
2019-03-26T10:17:30.637Z,102332.25
2019-03-26T10:20:02.552Z,102338.67
2019-03-26T10:22:32.639Z,102341.44
2019-03-26T10:25:04.796Z,102345.92
2019-03-26T10:27:35.307Z,102344.59
2019-03-26T10:30:05.902Z,102342.77
2019-03-26T10:32:37.055Z,102333.88
2019-03-26T10:35:07.154Z,102336.49
2019-03-26T10:37:37.023Z,102343.10
2019-03-26T10:40:09.440Z,102337.75
2019-03-26T10:42:39.607Z,102335.53
2019-03-26T10:45:09.876Z,102331.63
2019-03-26T10:47:39.966Z,102337.86
2019-03-26T10:50:10.065Z,102345.80
2019-03-26T10:52:44.027Z,102338.75
2019-03-26T10:55:14.055Z,102340.23
2019-03-26T10:57:44.004Z,102337.08
2019-03-26T11:00:14.477Z,102330.11
2019-03-26T11:02:44.373Z,102332.02
2019-03-26T11:05:15.722Z,102332.31
2019-03-26T11:07:46.316Z,102340.92
2019-03-26T11:10:16.456Z,102335.31
2019-03-26T11:12:46.961Z,102327.42
2019-03-26T11:15:16.643Z,102333.19
2019-03-26T11:17:48.445Z,102321.13
2019-03-26T11:20:19.705Z,102328.50
2019-03-26T11:22:49.256Z,102313.77
2019-03-26T11:25:19.419Z,102314.27
2019-03-26T11:27:51.667Z,102322.40
2019-03-26T11:30:21.346Z,102326.50
2019-03-26T11:32:51.816Z,102337.22
2019-03-26T11:35:21.378Z,102334.69
2019-03-26T11:37:52.019Z,102357.31
2019-03-26T11:40:24.795Z,102348.08
2019-03-26T11:42:57.129Z,102355.50
2019-03-26T11:45:27.509Z,102354.50
2019-03-26T11:47:57.437Z,102350.88
2019-03-26T11:50:27.876Z,102350.38
2019-03-26T11:52:58.948Z,102348.55
2019-03-26T11:55:28.689Z,102347.23
2019-03-26T11:57:58.980Z,102342.40
2019-03-26T12:00:31.998Z,102344.22
2019-03-26T12:03:01.596Z,102341.61
2019-03-26T12:05:31.456Z,102346.53
2019-03-26T12:08:02.036Z,102346.13
2019-03-26T12:10:32.447Z,102345.28
2019-03-26T12:13:02.638Z,102345.72
2019-03-26T12:15:35.463Z,102336.02
2019-03-26T12:18:05.177Z,102346.64
2019-03-26T12:20:36.980Z,102346.64
2019-03-26T12:23:06.867Z,102346.20
2019-03-26T12:25:37.127Z,102351.00
2019-03-26T12:28:06.720Z,102344.83
2019-03-26T12:30:39.073Z,102339.96
2019-03-26T12:33:09.549Z,102335.05
2019-03-26T12:35:39.690Z,102342.05
2019-03-26T12:38:23.450Z,102334.96
2019-03-26T12:40:54.391Z,102348.26
2019-03-26T12:43:24.232Z,102341.16
2019-03-26T12:45:54.087Z,102349.09
2019-03-26T12:48:23.760Z,102353.88
2019-03-26T12:50:53.608Z,102349.89
2019-03-26T12:53:23.538Z,102357.02
2019-03-26T12:55:53.602Z,102352.15
2019-03-26T12:58:31.637Z,102354.71
2019-03-26T13:00:55.212Z,102350.62
2019-03-26T13:03:24.698Z,102350.56
2019-03-26T13:05:55.717Z,102356.44
2019-03-26T13:08:28.783Z,102366.69
2019-03-26T13:10:58.505Z,102366.28
2019-03-26T13:13:39.321Z,102368.02
2019-03-26T13:16:11.534Z,102370.23
2019-03-26T13:18:41.174Z,102371.55
2019-03-26T13:21:19.833Z,102376.83
2019-03-26T13:23:49.894Z,102375.05
2019-03-26T13:26:19.835Z,102375.45
2019-03-26T13:28:50.599Z,102380.38
2019-03-26T13:31:20.233Z,102374.26
2019-03-26T13:33:52.168Z,102379.19
2019-03-26T13:36:22.813Z,102385.84
2019-03-26T13:49:41.744Z,102276.42
2019-03-26T13:52:11.615Z,102396.42
2019-03-26T13:54:41.303Z,102394.12
2019-03-26T13:57:11.189Z,102398.95
2019-03-26T13:59:41.382Z,102400.72
2019-03-26T14:02:11.048Z,102400.28
2019-03-26T14:04:41.659Z,102413.58
2019-03-26T14:07:11.572Z,102424.22
2019-03-26T14:09:43.456Z,102420.72
2019-03-26T14:12:13.056Z,102424.75
2019-03-26T14:14:43.666Z,102420.32
2019-03-26T14:17:13.532Z,102434.58
2019-03-26T14:19:43.295Z,102432.41
2019-03-26T14:22:13.725Z,102428.45
2019-03-26T14:24:43.732Z,102431.15
2019-03-26T14:27:13.446Z,102429.34
2019-03-26T14:29:43.347Z,102425.83
2019-03-26T14:32:13.614Z,102440.93
2019-03-26T14:34:43.681Z,102436.94
2019-03-26T14:37:13.250Z,102433.84
2019-03-26T14:39:43.053Z,102435.17
2019-03-26T14:42:13.547Z,102426.28
2019-03-26T14:44:45.827Z,102432.45
2019-03-26T14:47:15.541Z,102431.56
2019-03-26T14:49:45.239Z,102427.98
2019-03-26T14:52:15.104Z,102423.50
2019-03-26T14:54:44.644Z,102428.78
2019-03-26T14:57:15.263Z,102425.59
2019-03-26T14:59:45.304Z,102436.19
2019-03-26T15:02:15.191Z,102434.94
2019-03-26T15:04:45.323Z,102429.19
2019-03-26T15:07:15.090Z,102434.95
2019-03-26T15:09:45.116Z,102431.00
2019-03-26T15:12:16.105Z,102428.74
2019-03-26T15:14:45.784Z,102426.08
2019-03-26T15:17:17.880Z,102430.55
2019-03-26T15:19:47.496Z,102437.25
2019-03-26T15:22:17.010Z,102424.43
2019-03-26T15:24:47.131Z,102436.43
2019-03-26T15:27:16.468Z,102444.41
2019-03-26T15:29:46.431Z,102440.45
2019-03-26T15:32:16.031Z,102453.30
2019-03-26T15:34:45.682Z,102452.89
2019-03-26T15:37:15.879Z,102449.84
2019-03-26T15:39:45.763Z,102456.95
2019-03-26T15:42:15.834Z,102457.88
2019-03-26T15:44:54.789Z,102460.52
2019-03-26T15:47:30.613Z,102456.55
2019-03-26T15:50:01.127Z,102461.48
2019-03-26T15:52:36.715Z,102461.07
2019-03-26T15:55:08.077Z,102461.03
2019-03-26T15:57:41.556Z,102456.65
2019-03-26T16:00:15.120Z,102461.08
2019-03-26T16:02:48.476Z,102465.06
2019-03-26T16:05:21.493Z,102466.84
2019-03-26T16:07:53.002Z,102467.72
2019-03-26T16:10:23.011Z,102470.81
2019-03-26T16:12:53.172Z,102466.39
2019-03-26T16:15:43.666Z,102464.19
2019-03-26T16:18:05.708Z,102468.17
2019-03-26T16:20:50.854Z,102473.45
2019-03-26T16:23:19.848Z,102475.67
2019-03-26T16:25:56.348Z,102477.44
2019-03-26T16:28:26.308Z,102481.84
2019-03-26T16:31:15.015Z,102488.02
2019-03-26T16:33:45.541Z,102483.14
2019-03-26T16:36:15.799Z,102494.18
2019-03-26T16:38:46.422Z,102489.34
2019-03-26T16:41:22.087Z,102488.44
2019-03-26T16:43:52.714Z,102486.20
2019-03-26T16:46:23.393Z,102489.31
2019-03-26T16:48:53.265Z,102497.25
2019-03-26T16:51:23.678Z,102496.37
2019-03-26T16:53:54.187Z,102493.73
2019-03-26T16:56:24.707Z,102495.92
2019-03-26T16:58:55.263Z,102487.52
2019-03-26T17:01:28.109Z,102484.44
2019-03-26T17:04:00.993Z,102483.56
2019-03-26T17:06:33.835Z,102483.98
2019-03-26T17:09:09.647Z,102487.08
2019-03-26T17:11:39.968Z,102486.63
2019-03-26T17:14:13.635Z,102456.97
2019-03-26T17:16:48.190Z,102491.89
2019-03-26T17:19:20.464Z,102492.79
2019-03-26T17:21:55.187Z,102492.75
2019-03-26T17:24:31.185Z,102495.42
2019-03-26T17:27:05.125Z,102501.16
2019-03-26T17:29:35.552Z,102511.28
2019-03-26T17:32:05.691Z,102512.16
2019-03-26T17:34:44.055Z,102518.75
2019-03-26T17:41:03.142Z,102518.30
2019-03-26T17:43:46.604Z,102520.50
2019-03-26T17:46:45.318Z,102529.79
2019-03-26T17:49:15.216Z,102529.32
2019-03-26T17:51:44.925Z,102524.42
2019-03-26T17:54:16.602Z,102520.47
2019-03-26T17:56:47.543Z,102525.34
2019-03-26T17:59:17.965Z,102524.84
2019-03-26T18:01:48.310Z,102533.23
2019-03-26T18:04:19.329Z,102533.25
2019-03-26T18:06:50.457Z,102534.10
2019-03-26T18:09:40.853Z,102541.61
2019-03-26T18:15:02.248Z,102536.72
2019-03-26T18:17:34.059Z,102534.52
2019-03-26T18:20:04.089Z,102531.82
2019-03-26T18:22:34.202Z,102526.94
2019-03-26T18:25:06.865Z,102524.69
2019-03-26T18:27:37.582Z,102528.64
2019-03-26T18:30:08.762Z,102536.56
2019-03-26T18:32:38.882Z,102548.91
2019-03-26T18:35:08.477Z,102556.42
2019-03-26T18:37:38.646Z,102558.20
2019-03-26T18:40:52.791Z,102565.73
2019-03-26T18:43:22.681Z,102563.54
2019-03-26T18:45:54.679Z,102578.58
2019-03-26T18:48:24.964Z,102585.66
2019-03-26T18:50:57.646Z,102580.38
2019-03-26T18:53:30.699Z,102581.27
2019-03-26T18:56:01.794Z,102588.81
2019-03-26T18:58:32.801Z,102589.28
2019-03-26T19:01:02.251Z,102588.41
2019-03-26T19:03:32.190Z,102584.43
2019-03-26T19:06:06.123Z,102595.45
2019-03-26T19:08:35.837Z,102591.47
2019-03-26T19:11:05.824Z,102592.81
2019-03-26T19:13:35.708Z,102582.66
2019-03-26T19:16:05.736Z,102585.30
2019-03-26T19:18:35.910Z,102594.58
2019-03-26T19:21:06.028Z,102596.80
2019-03-26T19:23:36.742Z,102594.58
2019-03-26T19:26:06.696Z,102602.52
2019-03-26T19:28:36.802Z,102608.29
2019-03-26T19:31:11.789Z,102605.63
2019-03-26T19:33:41.893Z,102609.59
2019-03-26T19:36:13.736Z,102608.73
2019-03-26T19:38:43.678Z,102601.67
2019-03-26T19:41:13.563Z,102608.31
2019-03-26T19:43:49.430Z,102606.53
2019-03-26T19:46:19.152Z,102609.63
2019-03-26T19:48:49.244Z,102613.61
2019-03-26T19:51:19.323Z,102608.33
2019-03-26T19:53:49.530Z,102608.34
2019-03-26T19:56:19.380Z,102610.09
2019-03-26T19:58:49.463Z,102609.67
2019-03-26T20:01:19.719Z,102613.63
2019-03-26T20:03:49.886Z,102612.73
2019-03-26T20:06:19.533Z,102615.80
2019-03-26T20:08:49.433Z,102613.16
2019-03-26T20:11:19.291Z,102621.97
2019-03-26T20:13:49.309Z,102615.35
2019-03-26T20:16:21.501Z,102611.38
2019-03-26T20:18:51.224Z,102621.98
2019-03-26T20:21:21.424Z,102620.19
2019-03-26T20:23:51.875Z,102621.50
2019-03-26T20:26:21.807Z,102625.91
2019-03-26T20:28:51.978Z,102618.83
2019-03-26T20:31:22.504Z,102631.22
2019-03-26T20:33:52.642Z,102628.55
2019-03-26T20:36:22.637Z,102626.77
2019-03-26T20:38:52.997Z,102633.84
2019-03-26T20:41:25.489Z,102629.87
2019-03-26T20:43:59.705Z,102642.24
2019-03-26T20:46:29.729Z,102644.44
2019-03-26T20:48:59.523Z,102651.06
2019-03-26T20:51:29.711Z,102654.58
2019-03-26T20:53:59.696Z,102653.73
2019-03-26T20:56:30.034Z,102650.61
2019-03-26T20:59:00.853Z,102658.14
2019-03-26T21:01:30.699Z,102652.81
2019-03-26T21:04:01.060Z,102652.41
2019-03-26T21:06:31.052Z,102657.68
2019-03-26T21:09:01.221Z,102656.77
2019-03-26T21:11:30.869Z,102662.94
2019-03-26T21:14:00.626Z,102665.61
2019-03-26T21:16:30.778Z,102673.58
2019-03-26T21:19:00.889Z,102669.14
2019-03-26T21:21:31.142Z,102671.36
2019-03-26T21:24:02.866Z,102665.61
2019-03-26T21:26:33.111Z,102657.23
2019-03-26T21:29:02.725Z,102660.74
2019-03-26T21:31:32.709Z,102658.98
2019-03-26T21:34:02.922Z,102660.74
2019-03-26T21:36:35.502Z,102668.23
2019-03-26T21:39:07.165Z,102662.48
2019-03-26T21:41:37.182Z,102661.13
2019-03-26T21:44:07.058Z,102672.97
2019-03-26T21:46:36.846Z,102666.34
2019-03-26T21:49:07.024Z,102674.25
2019-03-26T21:51:37.272Z,102666.30
2019-03-26T21:54:07.225Z,102675.11
2019-03-26T21:56:36.908Z,102676.00
2019-03-26T21:59:06.785Z,102682.19
2019-03-26T22:01:36.920Z,102681.32
2019-03-26T22:04:06.800Z,102690.17
2019-03-26T22:06:36.779Z,102687.94
2019-03-26T22:09:08.375Z,102688.40
2019-03-26T22:11:49.282Z,102687.07
2019-03-26T22:14:17.892Z,102694.10
2019-03-26T22:16:41.693Z,102691.45
2019-03-26T22:19:11.552Z,102693.18
2019-03-26T22:21:41.696Z,102697.99
2019-03-26T22:24:12.009Z,102701.09
2019-03-26T22:26:42.138Z,102706.81
2019-03-26T22:29:13.354Z,102712.56
2019-03-26T22:31:43.158Z,102707.70
2019-03-26T22:34:13.406Z,102723.56
2019-03-26T22:36:43.528Z,102719.14
2019-03-26T22:39:13.633Z,102723.09
2019-03-26T22:41:43.346Z,102726.62
2019-03-26T22:44:13.483Z,102731.48
2019-03-26T22:46:43.549Z,102737.26
2019-03-26T22:49:13.119Z,102735.91
2019-03-26T22:51:44.133Z,102731.94
2019-03-26T22:54:14.277Z,102736.80
2019-03-26T22:56:47.368Z,102740.36
2019-03-26T22:59:17.513Z,102746.06
2019-03-26T23:01:47.591Z,102749.61
2019-03-26T23:04:19.863Z,102754.90
2019-03-26T23:06:49.098Z,102750.50
2019-03-26T23:09:18.768Z,102765.48
2019-03-26T23:11:53.994Z,102758.00
2019-03-26T23:14:23.800Z,102754.92
2019-03-26T23:16:53.938Z,102755.36
2019-03-26T23:19:23.974Z,102752.69
2019-03-26T23:21:54.006Z,102754.90
2019-03-26T23:24:23.768Z,102749.61
2019-03-26T23:26:56.455Z,102755.79
2019-03-26T23:29:29.648Z,102751.82
2019-03-26T23:32:03.261Z,102758.44
2019-03-26T23:34:33.591Z,102757.50
2019-03-26T23:37:03.522Z,102757.94
2019-03-26T23:39:36.097Z,102761.02
2019-03-26T23:42:05.774Z,102757.45
2019-03-26T23:44:36.926Z,102758.78
2019-03-26T23:47:07.950Z,102759.64
2019-03-26T23:49:38.312Z,102756.13
2019-03-26T23:52:09.013Z,102763.19
2019-03-26T23:54:38.651Z,102752.19
2019-03-26T23:57:08.127Z,102759.70
2019-03-26T23:59:38.043Z,102746.48
